Archer City, TX

9:12 AM CDT on August 29, 2015 (GMT -0500)
Parker Rd | | Change Station
CLOSE
Current Station
Personal Weather Station
Location: Wichita Falls, TX
Elevation: 1030 ft
Nearby Weather Stations

Elev 1030 ft 33.80 °N, 98.54 °W | Updated 4 minutes ago

Partly Cloudy
Partly Cloudy
81.1 °F
Feels Like 82 °F
N
5.8
Wind Variable Wind from SSE

Today
High -- | Low -- °F
--% Chance of Precip.
Yesterday
High -- | Low -- °F
Precip. -- in
7:06 AM 8:04 PM
Full, 100% visible
Pressure 29.99 in
Visibility 10.0 miles
Clouds Clear
Heat Index 82 °F
Dew Point 62 °F
Humidity 52%
Rainfall 0.00 in
Snow Depth Not available.
UV 2 out of 12
Pollen 8.80 out of 12
Air Quality Not available.
Flu Activity Not available.
METAR KCWC 291355Z AUTO 20004KT 10SM CLR 27/17 A2999 RMK AO2 T02690167
Pressure 29.99 in
Visibility 10.0 miles
Clouds Clear
Heat Index 82 °F
Dew Point 62 °F
Humidity 52%
Rainfall 0.00 in
Snow Depth Not available.
UV 2 out of 12
Pollen 8.80 out of 12
Air Quality Not available.
Flu Activity Not available.
METAR KCWC 291355Z AUTO 20004KT 10SM CLR 27/17 A2999 RMK AO2 T02690167

10-Day Weather Forecast

×

Almanac

Astronomy

Aug. 29, 2015 Rise Set
Actual Time
Civil Twilight
Nautical Twilight
Astronomical Twilight
Moon
Length of Visible Light
Length of Day
Tomorrow will be .
, % of the Moon is Illuminated

Today's Extremes

State Highs State Lows

Community

WunderPhotos

Upload Photos

1,850,692 photos uploaded!

WunderBlogs® & News

Nearby

Air Quality

  Air Quality AQ Index Pollutant
Not available.

Snow Depth

Station Depth Elevation

Earthquake Activity

City Distance Mag. Time & Date
Minimum magnitude displayed is 2.5.

Coastal Water Temperatures

Place Temperature

Stations

Nearby Weather Stations

Station Location Temp. Windchill Dew Point Humidity Wind Precip. Elev Updated Type